sensor_id;sensor_type;location;lat;lon;timestamp;P1;durP1;ratioP1;P2;durP2;ratioP2
26989;SDS011;14537;47.788;11.858;2023-03-01T00:01:33;36.38;;;16.05;;
26989;SDS011;14537;47.788;11.858;2023-03-01T00:03:59;36.30;;;15.05;;
26989;SDS011;14537;47.788;11.858;2023-03-01T00:06:25;37.95;;;15.07;;
26989;SDS011;14537;47.788;11.858;2023-03-01T00:08:51;43.85;;;18.08;;
26989;SDS011;14537;47.788;11.858;2023-03-01T00:11:18;38.03;;;15.20;;
26989;SDS011;14537;47.788;11.858;2023-03-01T00:13:45;39.10;;;16.52;;
26989;SDS011;14537;47.788;11.858;2023-03-01T00:16:13;40.58;;;16.33;;
26989;SDS011;14537;47.788;11.858;2023-03-01T00:18:44;37.95;;;15.10;;
26989;SDS011;14537;47.788;11.858;2023-03-01T00:21:10;31.60;;;14.07;;
26989;SDS011;14537;47.788;11.858;2023-03-01T00:23:36;38.22;;;15.63;;
26989;SDS011;14537;47.788;11.858;2023-03-01T00:26:05;42.13;;;16.45;;
26989;SDS011;14537;47.788;11.858;2023-03-01T00:28:32;37.55;;;15.50;;
26989;SDS011;14537;47.788;11.858;2023-03-01T00:31:02;40.40;;;17.55;;
26989;SDS011;14537;47.788;11.858;2023-03-01T00:33:29;39.63;;;17.00;;
26989;SDS011;14537;47.788;11.858;2023-03-01T00:35:57;35.83;;;14.60;;
26989;SDS011;14537;47.788;11.858;2023-03-01T00:38:23;37.90;;;16.40;;
26989;SDS011;14537;47.788;11.858;2023-03-01T00:40:49;35.42;;;15.10;;
26989;SDS011;14537;47.788;11.858;2023-03-01T00:43:14;41.55;;;16.70;;
26989;SDS011;14537;47.788;11.858;2023-03-01T00:45:40;37.10;;;14.73;;
26989;SDS011;14537;47.788;11.858;2023-03-01T00:48:06;43.92;;;16.40;;
26989;SDS011;14537;47.788;11.858;2023-03-01T00:50:31;36.17;;;15.40;;
26989;SDS011;14537;47.788;11.858;2023-03-01T00:52:57;33.20;;;14.18;;
26989;SDS011;14537;47.788;11.858;2023-03-01T00:55:23;36.67;;;14.82;;
26989;SDS011;14537;47.788;11.858;2023-03-01T00:57:49;34.88;;;15.70;;
26989;SDS011;14537;47.788;11.858;2023-03-01T01:00:15;35.72;;;14.35;;
26989;SDS011;14537;47.788;11.858;2023-03-01T01:02:41;39.28;;;14.00;;
26989;SDS011;14537;47.788;11.858;2023-03-01T01:05:07;43.85;;;15.32;;
26989;SDS011;14537;47.788;11.858;2023-03-01T01:07:32;37.88;;;15.27;;
26989;SDS011;14537;47.788;11.858;2023-03-01T01:09:58;42.03;;;16.23;;
26989;SDS011;14537;47.788;11.858;2023-03-01T01:12:24;36.92;;;15.40;;
26989;SDS011;14537;47.788;11.858;2023-03-01T01:14:49;38.90;;;15.05;;
26989;SDS011;14537;47.788;11.858;2023-03-01T01:17:15;35.35;;;14.50;;
26989;SDS011;14537;47.788;11.858;2023-03-01T01:19:41;46.25;;;17.60;;
26989;SDS011;14537;47.788;11.858;2023-03-01T01:22:06;37.75;;;15.60;;
26989;SDS011;14537;47.788;11.858;2023-03-01T01:24:32;41.88;;;15.70;;
26989;SDS011;14537;47.788;11.858;2023-03-01T01:26:57;38.67;;;15.95;;
26989;SDS011;14537;47.788;11.858;2023-03-01T01:29:23;35.60;;;15.32;;
26989;SDS011;14537;47.788;11.858;2023-03-01T01:31:48;42.60;;;16.42;;
26989;SDS011;14537;47.788;11.858;2023-03-01T01:34:15;40.55;;;16.75;;
26989;SDS011;14537;47.788;11.858;2023-03-01T01:36:43;42.00;;;16.20;;
26989;SDS011;14537;47.788;11.858;2023-03-01T01:39:12;40.95;;;15.45;;
26989;SDS011;14537;47.788;11.858;2023-03-01T01:41:38;36.42;;;15.50;;
26989;SDS011;14537;47.788;11.858;2023-03-01T01:44:37;36.35;;;16.13;;
26989;SDS011;14537;47.788;11.858;2023-03-01T01:47:00;32.15;;;14.13;;
26989;SDS011;14537;47.788;11.858;2023-03-01T01:49:42;36.95;;;15.40;;
26989;SDS011;14537;47.788;11.858;2023-03-01T01:52:21;42.20;;;17.65;;
26989;SDS011;14537;47.788;11.858;2023-03-01T01:57:32;38.28;;;16.10;;
26989;SDS011;14537;47.788;11.858;2023-03-01T02:00:00;43.33;;;16.73;;
26989;SDS011;14537;47.788;11.858;2023-03-01T02:02:31;36.00;;;16.02;;
26989;SDS011;14537;47.788;11.858;2023-03-01T02:05:02;35.45;;;15.80;;
26989;SDS011;14537;47.788;11.858;2023-03-01T02:07:35;33.17;;;14.13;;
26989;SDS011;14537;47.788;11.858;2023-03-01T02:10:04;40.33;;;17.20;;
26989;SDS011;14537;47.788;11.858;2023-03-01T02:12:31;44.55;;;15.52;;
26989;SDS011;14537;47.788;11.858;2023-03-01T02:14:57;40.67;;;16.35;;
26989;SDS011;14537;47.788;11.858;2023-03-01T02:17:22;39.40;;;15.82;;
26989;SDS011;14537;47.788;11.858;2023-03-01T02:22:30;42.60;;;16.35;;
26989;SDS011;14537;47.788;11.858;2023-03-01T02:25:00;36.33;;;15.38;;
26989;SDS011;14537;47.788;11.858;2023-03-01T02:27:42;39.13;;;15.25;;
26989;SDS011;14537;47.788;11.858;2023-03-01T02:30:29;40.17;;;15.85;;
26989;SDS011;14537;47.788;11.858;2023-03-01T02:32:56;39.63;;;15.38;;
26989;SDS011;14537;47.788;11.858;2023-03-01T02:35:27;38.70;;;14.90;;
26989;SDS011;14537;47.788;11.858;2023-03-01T02:38:02;44.03;;;14.50;;
26989;SDS011;14537;47.788;11.858;2023-03-01T02:40:31;42.83;;;15.52;;
26989;SDS011;14537;47.788;11.858;2023-03-01T02:42:59;36.60;;;14.02;;
26989;SDS011;14537;47.788;11.858;2023-03-01T02:45:25;38.25;;;14.88;;
26989;SDS011;14537;47.788;11.858;2023-03-01T02:47:54;32.90;;;13.27;;
26989;SDS011;14537;47.788;11.858;2023-03-01T02:55:34;34.60;;;15.15;;
26989;SDS011;14537;47.788;11.858;2023-03-01T02:57:59;36.65;;;13.65;;
26989;SDS011;14537;47.788;11.858;2023-03-01T03:00:33;30.05;;;13.18;;
26989;SDS011;14537;47.788;11.858;2023-03-01T03:03:05;37.47;;;13.88;;
26989;SDS011;14537;47.788;11.858;2023-03-01T03:05:32;37.65;;;13.82;;
26989;SDS011;14537;47.788;11.858;2023-03-01T03:07:59;30.85;;;13.57;;
26989;SDS011;14537;47.788;11.858;2023-03-01T03:10:28;35.03;;;14.40;;
26989;SDS011;14537;47.788;11.858;2023-03-01T03:12:58;32.58;;;12.13;;
26989;SDS011;14537;47.788;11.858;2023-03-01T03:15:32;32.13;;;14.00;;
26989;SDS011;14537;47.788;11.858;2023-03-01T03:18:00;35.23;;;13.20;;
26989;SDS011;14537;47.788;11.858;2023-03-01T03:20:27;34.17;;;13.35;;
26989;SDS011;14537;47.788;11.858;2023-03-01T03:22:54;37.65;;;14.35;;
26989;SDS011;14537;47.788;11.858;2023-03-01T03:25:21;35.00;;;14.73;;
26989;SDS011;14537;47.788;11.858;2023-03-01T03:27:48;37.97;;;13.88;;
26989;SDS011;14537;47.788;11.858;2023-03-01T03:30:16;33.92;;;13.55;;
26989;SDS011;14537;47.788;11.858;2023-03-01T03:32:44;32.35;;;13.15;;
26989;SDS011;14537;47.788;11.858;2023-03-01T03:35:17;29.05;;;12.23;;
26989;SDS011;14537;47.788;11.858;2023-03-01T03:37:50;38.05;;;14.50;;
26989;SDS011;14537;47.788;11.858;2023-03-01T03:43:03;35.55;;;13.95;;
26989;SDS011;14537;47.788;11.858;2023-03-01T03:45:30;33.17;;;13.23;;
26989;SDS011;14537;47.788;11.858;2023-03-01T03:47:58;28.60;;;12.65;;
26989;SDS011;14537;47.788;11.858;2023-03-01T03:50:25;32.28;;;12.65;;
26989;SDS011;14537;47.788;11.858;2023-03-01T03:52:50;34.00;;;14.13;;
26989;SDS011;14537;47.788;11.858;2023-03-01T03:55:16;30.67;;;12.85;;
26989;SDS011;14537;47.788;11.858;2023-03-01T03:57:44;34.97;;;13.70;;
26989;SDS011;14537;47.788;11.858;2023-03-01T04:00:19;28.45;;;12.27;;
26989;SDS011;14537;47.788;11.858;2023-03-01T04:02:46;32.15;;;13.07;;
26989;SDS011;14537;47.788;11.858;2023-03-01T04:05:14;29.02;;;12.18;;
26989;SDS011;14537;47.788;11.858;2023-03-01T04:07:42;32.75;;;12.80;;
26989;SDS011;14537;47.788;11.858;2023-03-01T04:10:09;26.38;;;11.77;;
26989;SDS011;14537;47.788;11.858;2023-03-01T04:12:37;31.42;;;12.65;;
26989;SDS011;14537;47.788;11.858;2023-03-01T04:15:04;32.10;;;12.98;;
26989;SDS011;14537;47.788;11.858;2023-03-01T04:17:46;25.10;;;11.40;;
26989;SDS011;14537;47.788;11.858;2023-03-01T04:20:13;33.10;;;12.00;;
26989;SDS011;14537;47.788;11.858;2023-03-01T04:22:43;29.38;;;12.75;;
26989;SDS011;14537;47.788;11.858;2023-03-01T04:25:12;34.15;;;14.13;;
26989;SDS011;14537;47.788;11.858;2023-03-01T04:27:39;30.15;;;13.10;;
26989;SDS011;14537;47.788;11.858;2023-03-01T04:30:06;28.42;;;12.98;;
26989;SDS011;14537;47.788;11.858;2023-03-01T04:32:33;28.42;;;11.35;;
26989;SDS011;14537;47.788;11.858;2023-03-01T04:34:58;33.28;;;12.93;;
26989;SDS011;14537;47.788;11.858;2023-03-01T04:37:24;30.70;;;13.02;;
26989;SDS011;14537;47.788;11.858;2023-03-01T04:39:51;28.15;;;12.13;;
26989;SDS011;14537;47.788;11.858;2023-03-01T04:42:17;28.25;;;11.48;;
26989;SDS011;14537;47.788;11.858;2023-03-01T04:44:43;34.42;;;12.98;;
26989;SDS011;14537;47.788;11.858;2023-03-01T04:47:09;25.98;;;10.73;;
26989;SDS011;14537;47.788;11.858;2023-03-01T04:49:35;25.02;;;10.70;;
26989;SDS011;14537;47.788;11.858;2023-03-01T04:52:00;28.77;;;12.65;;
26989;SDS011;14537;47.788;11.858;2023-03-01T04:54:29;22.67;;;10.23;;
26989;SDS011;14537;47.788;11.858;2023-03-01T04:56:57;28.17;;;11.13;;
26989;SDS011;14537;47.788;11.858;2023-03-01T04:59:23;24.42;;;10.13;;
26989;SDS011;14537;47.788;11.858;2023-03-01T05:01:53;24.17;;;10.98;;
26989;SDS011;14537;47.788;11.858;2023-03-01T05:04:23;27.85;;;11.20;;
26989;SDS011;14537;47.788;11.858;2023-03-01T05:06:49;27.85;;;11.80;;
26989;SDS011;14537;47.788;11.858;2023-03-01T05:09:15;29.02;;;11.68;;
26989;SDS011;14537;47.788;11.858;2023-03-01T05:11:41;25.67;;;11.10;;
26989;SDS011;14537;47.788;11.858;2023-03-01T05:14:08;23.08;;;10.20;;
26989;SDS011;14537;47.788;11.858;2023-03-01T05:16:34;29.02;;;11.20;;
26989;SDS011;14537;47.788;11.858;2023-03-01T05:19:01;28.13;;;10.73;;
26989;SDS011;14537;47.788;11.858;2023-03-01T05:21:36;28.75;;;11.80;;
26989;SDS011;14537;47.788;11.858;2023-03-01T05:24:23;23.70;;;10.20;;
26989;SDS011;14537;47.788;11.858;2023-03-01T05:26:49;24.23;;;9.65;;
26989;SDS011;14537;47.788;11.858;2023-03-01T05:29:17;27.83;;;12.05;;
26989;SDS011;14537;47.788;11.858;2023-03-01T05:31:59;27.77;;;11.25;;
26989;SDS011;14537;47.788;11.858;2023-03-01T05:34:33;25.73;;;10.13;;
26989;SDS011;14537;47.788;11.858;2023-03-01T05:37:00;23.30;;;10.30;;
26989;SDS011;14537;47.788;11.858;2023-03-01T05:39:29;32.42;;;10.70;;
26989;SDS011;14537;47.788;11.858;2023-03-01T05:41:57;23.00;;;10.00;;
26989;SDS011;14537;47.788;11.858;2023-03-01T05:44:24;27.88;;;10.80;;
26989;SDS011;14537;47.788;11.858;2023-03-01T05:46:50;23.20;;;11.77;;
26989;SDS011;14537;47.788;11.858;2023-03-01T05:49:16;27.05;;;11.52;;
26989;SDS011;14537;47.788;11.858;2023-03-01T05:51:43;25.48;;;11.65;;
26989;SDS011;14537;47.788;11.858;2023-03-01T05:56:38;30.02;;;10.35;;
26989;SDS011;14537;47.788;11.858;2023-03-01T05:59:04;24.20;;;9.80;;
26989;SDS011;14537;47.788;11.858;2023-03-01T06:01:30;21.40;;;9.80;;
26989;SDS011;14537;47.788;11.858;2023-03-01T06:03:56;24.40;;;10.02;;
26989;SDS011;14537;47.788;11.858;2023-03-01T06:06:22;28.40;;;11.82;;
26989;SDS011;14537;47.788;11.858;2023-03-01T06:08:49;25.08;;;11.27;;
26989;SDS011;14537;47.788;11.858;2023-03-01T06:11:15;24.92;;;11.48;;
26989;SDS011;14537;47.788;11.858;2023-03-01T06:13:42;28.13;;;11.82;;
26989;SDS011;14537;47.788;11.858;2023-03-01T06:16:08;29.90;;;10.85;;
26989;SDS011;14537;47.788;11.858;2023-03-01T06:18:34;31.23;;;11.70;;
26989;SDS011;14537;47.788;11.858;2023-03-01T06:21:00;28.30;;;11.35;;
26989;SDS011;14537;47.788;11.858;2023-03-01T06:23:26;28.15;;;12.30;;
26989;SDS011;14537;47.788;11.858;2023-03-01T06:25:52;27.70;;;12.07;;
26989;SDS011;14537;47.788;11.858;2023-03-01T06:28:17;24.00;;;11.55;;
26989;SDS011;14537;47.788;11.858;2023-03-01T06:30:43;27.58;;;11.48;;
26989;SDS011;14537;47.788;11.858;2023-03-01T06:33:09;27.48;;;10.23;;
26989;SDS011;14537;47.788;11.858;2023-03-01T06:35:34;27.08;;;11.45;;
26989;SDS011;14537;47.788;11.858;2023-03-01T06:38:00;27.23;;;12.18;;
26989;SDS011;14537;47.788;11.858;2023-03-01T06:40:28;28.25;;;11.60;;
26989;SDS011;14537;47.788;11.858;2023-03-01T06:42:54;30.65;;;11.85;;
26989;SDS011;14537;47.788;11.858;2023-03-01T06:45:20;25.67;;;11.43;;
26989;SDS011;14537;47.788;11.858;2023-03-01T06:47:46;28.58;;;11.85;;
26989;SDS011;14537;47.788;11.858;2023-03-01T06:50:12;32.05;;;12.18;;
26989;SDS011;14537;47.788;11.858;2023-03-01T06:52:38;24.48;;;10.88;;
26989;SDS011;14537;47.788;11.858;2023-03-01T06:55:04;26.67;;;10.80;;
26989;SDS011;14537;47.788;11.858;2023-03-01T06:57:31;29.95;;;10.82;;
26989;SDS011;14537;47.788;11.858;2023-03-01T06:59:56;29.02;;;11.85;;
26989;SDS011;14537;47.788;11.858;2023-03-01T07:02:22;28.77;;;12.15;;
26989;SDS011;14537;47.788;11.858;2023-03-01T07:04:49;25.55;;;11.65;;
26989;SDS011;14537;47.788;11.858;2023-03-01T07:07:15;31.13;;;11.77;;
26989;SDS011;14537;47.788;11.858;2023-03-01T07:09:43;27.20;;;11.23;;
26989;SDS011;14537;47.788;11.858;2023-03-01T07:12:09;23.98;;;10.88;;
26989;SDS011;14537;47.788;11.858;2023-03-01T07:14:34;30.45;;;11.43;;
26989;SDS011;14537;47.788;11.858;2023-03-01T07:17:00;28.73;;;10.93;;
26989;SDS011;14537;47.788;11.858;2023-03-01T07:19:26;29.95;;;12.05;;
26989;SDS011;14537;47.788;11.858;2023-03-01T07:21:52;23.05;;;10.13;;
26989;SDS011;14537;47.788;11.858;2023-03-01T07:24:17;27.67;;;12.23;;
26989;SDS011;14537;47.788;11.858;2023-03-01T07:26:43;39.97;;;13.38;;
26989;SDS011;14537;47.788;11.858;2023-03-01T07:29:09;31.20;;;11.93;;
26989;SDS011;14537;47.788;11.858;2023-03-01T07:31:35;30.58;;;12.75;;
26989;SDS011;14537;47.788;11.858;2023-03-01T07:34:01;26.90;;;11.68;;
26989;SDS011;14537;47.788;11.858;2023-03-01T07:36:27;31.95;;;11.63;;
26989;SDS011;14537;47.788;11.858;2023-03-01T07:38:53;28.48;;;11.90;;
26989;SDS011;14537;47.788;11.858;2023-03-01T07:41:20;30.50;;;11.48;;
26989;SDS011;14537;47.788;11.858;2023-03-01T07:43:46;34.08;;;11.70;;
26989;SDS011;14537;47.788;11.858;2023-03-01T07:46:12;28.23;;;12.07;;
26989;SDS011;14537;47.788;11.858;2023-03-01T07:48:38;27.67;;;12.45;;
26989;SDS011;14537;47.788;11.858;2023-03-01T07:51:04;26.63;;;11.27;;
26989;SDS011;14537;47.788;11.858;2023-03-01T07:53:31;28.75;;;11.20;;
26989;SDS011;14537;47.788;11.858;2023-03-01T07:56:12;26.77;;;11.93;;
26989;SDS011;14537;47.788;11.858;2023-03-01T07:58:40;30.00;;;11.98;;
26989;SDS011;14537;47.788;11.858;2023-03-01T08:01:08;27.55;;;11.98;;
26989;SDS011;14537;47.788;11.858;2023-03-01T08:03:35;27.90;;;12.23;;
26989;SDS011;14537;47.788;11.858;2023-03-01T08:06:02;31.23;;;12.07;;
26989;SDS011;14537;47.788;11.858;2023-03-01T08:08:29;28.10;;;10.95;;
26989;SDS011;14537;47.788;11.858;2023-03-01T08:10:58;31.02;;;12.80;;
26989;SDS011;14537;47.788;11.858;2023-03-01T08:13:25;27.63;;;11.32;;
26989;SDS011;14537;47.788;11.858;2023-03-01T08:15:52;30.90;;;11.55;;
26989;SDS011;14537;47.788;11.858;2023-03-01T08:18:18;32.22;;;11.23;;
26989;SDS011;14537;47.788;11.858;2023-03-01T08:20:45;32.60;;;12.63;;
26989;SDS011;14537;47.788;11.858;2023-03-01T08:23:11;35.13;;;12.68;;
26989;SDS011;14537;47.788;11.858;2023-03-01T08:25:37;34.42;;;13.10;;
26989;SDS011;14537;47.788;11.858;2023-03-01T08:28:03;32.95;;;13.38;;
26989;SDS011;14537;47.788;11.858;2023-03-01T08:30:29;29.20;;;12.07;;
26989;SDS011;14537;47.788;11.858;2023-03-01T08:32:54;34.35;;;13.00;;
26989;SDS011;14537;47.788;11.858;2023-03-01T08:35:20;28.77;;;12.65;;
26989;SDS011;14537;47.788;11.858;2023-03-01T08:37:46;36.05;;;12.18;;
26989;SDS011;14537;47.788;11.858;2023-03-01T08:40:12;26.90;;;12.27;;
26989;SDS011;14537;47.788;11.858;2023-03-01T08:42:39;29.73;;;11.88;;
26989;SDS011;14537;47.788;11.858;2023-03-01T08:45:05;30.80;;;11.85;;
26989;SDS011;14537;47.788;11.858;2023-03-01T08:47:32;30.58;;;14.40;;
26989;SDS011;14537;47.788;11.858;2023-03-01T08:50:00;39.78;;;14.77;;
26989;SDS011;14537;47.788;11.858;2023-03-01T08:52:26;37.08;;;13.55;;
26989;SDS011;14537;47.788;11.858;2023-03-01T08:54:52;35.03;;;13.30;;
26989;SDS011;14537;47.788;11.858;2023-03-01T08:57:18;35.08;;;13.10;;
26989;SDS011;14537;47.788;11.858;2023-03-01T08:59:45;27.50;;;12.18;;
26989;SDS011;14537;47.788;11.858;2023-03-01T09:02:14;33.13;;;13.57;;
26989;SDS011;14537;47.788;11.858;2023-03-01T09:04:41;38.80;;;13.20;;
26989;SDS011;14537;47.788;11.858;2023-03-01T09:07:07;39.80;;;12.98;;
26989;SDS011;14537;47.788;11.858;2023-03-01T09:09:33;35.40;;;13.57;;
26989;SDS011;14537;47.788;11.858;2023-03-01T09:12:00;28.90;;;12.82;;
26989;SDS011;14537;47.788;11.858;2023-03-01T09:14:26;33.08;;;12.85;;
26989;SDS011;14537;47.788;11.858;2023-03-01T09:16:51;32.03;;;12.63;;
26989;SDS011;14537;47.788;11.858;2023-03-01T09:19:17;32.28;;;12.82;;
26989;SDS011;14537;47.788;11.858;2023-03-01T09:21:43;36.95;;;12.43;;
26989;SDS011;14537;47.788;11.858;2023-03-01T09:24:18;38.08;;;13.13;;
26989;SDS011;14537;47.788;11.858;2023-03-01T09:26:45;32.55;;;12.70;;
26989;SDS011;14537;47.788;11.858;2023-03-01T09:29:12;30.08;;;12.32;;
26989;SDS011;14537;47.788;11.858;2023-03-01T09:31:39;28.70;;;12.13;;
26989;SDS011;14537;47.788;11.858;2023-03-01T09:34:05;31.77;;;12.32;;
26989;SDS011;14537;47.788;11.858;2023-03-01T09:36:31;33.08;;;13.02;;
26989;SDS011;14537;47.788;11.858;2023-03-01T09:38:58;31.00;;;12.90;;
26989;SDS011;14537;47.788;11.858;2023-03-01T09:44:22;29.88;;;12.93;;
26989;SDS011;14537;47.788;11.858;2023-03-01T09:46:56;26.10;;;11.52;;
26989;SDS011;14537;47.788;11.858;2023-03-01T09:49:27;27.38;;;11.75;;
26989;SDS011;14537;47.788;11.858;2023-03-01T09:52:12;28.17;;;12.93;;
26989;SDS011;14537;47.788;11.858;2023-03-01T09:54:49;30.33;;;11.80;;
26989;SDS011;14537;47.788;11.858;2023-03-01T09:57:20;30.40;;;12.15;;
26989;SDS011;14537;47.788;11.858;2023-03-01T10:03:01;28.88;;;11.57;;
26989;SDS011;14537;47.788;11.858;2023-03-01T10:05:59;25.58;;;11.60;;
26989;SDS011;14537;47.788;11.858;2023-03-01T10:08:41;26.02;;;11.63;;
26989;SDS011;14537;47.788;11.858;2023-03-01T10:11:37;28.60;;;12.75;;
26989;SDS011;14537;47.788;11.858;2023-03-01T10:16:34;27.05;;;12.55;;
26989;SDS011;14537;47.788;11.858;2023-03-01T10:19:23;33.80;;;14.02;;
26989;SDS011;14537;47.788;11.858;2023-03-01T10:22:04;30.30;;;12.02;;
26989;SDS011;14537;47.788;11.858;2023-03-01T10:24:53;33.20;;;13.93;;
26989;SDS011;14537;47.788;11.858;2023-03-01T10:27:25;31.58;;;13.05;;
26989;SDS011;14537;47.788;11.858;2023-03-01T10:32:56;32.45;;;12.55;;
26989;SDS011;14537;47.788;11.858;2023-03-01T10:35:27;31.08;;;12.60;;
26989;SDS011;14537;47.788;11.858;2023-03-01T10:40:23;31.30;;;12.02;;
26989;SDS011;14537;47.788;11.858;2023-03-01T10:42:48;33.47;;;12.93;;
26989;SDS011;14537;47.788;11.858;2023-03-01T10:50:29;27.80;;;12.23;;
26989;SDS011;14537;47.788;11.858;2023-03-01T10:52:59;29.50;;;13.15;;
26989;SDS011;14537;47.788;11.858;2023-03-01T10:55:31;27.85;;;12.65;;
26989;SDS011;14537;47.788;11.858;2023-03-01T10:58:07;28.90;;;12.68;;
26989;SDS011;14537;47.788;11.858;2023-03-01T11:00:46;32.38;;;13.65;;
26989;SDS011;14537;47.788;11.858;2023-03-01T11:03:28;35.17;;;13.07;;
26989;SDS011;14537;47.788;11.858;2023-03-01T11:05:59;27.33;;;12.32;;
26989;SDS011;14537;47.788;11.858;2023-03-01T11:08:33;28.23;;;12.32;;
26989;SDS011;14537;47.788;11.858;2023-03-01T11:16:38;30.00;;;13.40;;
26989;SDS011;14537;47.788;11.858;2023-03-01T11:21:34;30.13;;;12.00;;
26989;SDS011;14537;47.788;11.858;2023-03-01T11:24:08;34.50;;;13.30;;
26989;SDS011;14537;47.788;11.858;2023-03-01T11:26:38;31.20;;;13.38;;
26989;SDS011;14537;47.788;11.858;2023-03-01T11:29:10;32.67;;;13.75;;
26989;SDS011;14537;47.788;11.858;2023-03-01T11:31:42;33.03;;;14.57;;
26989;SDS011;14537;47.788;11.858;2023-03-01T11:34:11;32.30;;;12.70;;
26989;SDS011;14537;47.788;11.858;2023-03-01T11:36:47;35.60;;;13.52;;
26989;SDS011;14537;47.788;11.858;2023-03-01T11:42:28;32.20;;;12.95;;
26989;SDS011;14537;47.788;11.858;2023-03-01T11:45:06;27.42;;;11.85;;
26989;SDS011;14537;47.788;11.858;2023-03-01T11:50:48;28.85;;;12.50;;
26989;SDS011;14537;47.788;11.858;2023-03-01T11:59:00;32.90;;;13.30;;
26989;SDS011;14537;47.788;11.858;2023-03-01T12:07:29;31.40;;;12.75;;
26989;SDS011;14537;47.788;11.858;2023-03-01T12:13:08;32.53;;;13.02;;
26989;SDS011;14537;47.788;11.858;2023-03-01T12:16:12;34.25;;;13.63;;
26989;SDS011;14537;47.788;11.858;2023-03-01T12:30:18;33.10;;;12.23;;
26989;SDS011;14537;47.788;11.858;2023-03-01T12:46:21;35.47;;;13.30;;
26989;SDS011;14537;47.788;11.858;2023-03-01T12:51:32;50.38;;;16.70;;
26989;SDS011;14537;47.788;11.858;2023-03-01T12:54:01;34.47;;;13.82;;
26989;SDS011;14537;47.788;11.858;2023-03-01T12:56:41;28.75;;;12.57;;
26989;SDS011;14537;47.788;11.858;2023-03-01T13:01:45;33.78;;;12.23;;
26989;SDS011;14537;47.788;11.858;2023-03-01T13:04:37;30.23;;;11.85;;
26989;SDS011;14537;47.788;11.858;2023-03-01T13:13:18;31.13;;;12.77;;
26989;SDS011;14537;47.788;11.858;2023-03-01T13:15:49;29.20;;;13.05;;
26989;SDS011;14537;47.788;11.858;2023-03-01T13:26:14;29.63;;;12.00;;
26989;SDS011;14537;47.788;11.858;2023-03-01T13:41:50;31.10;;;12.15;;
26989;SDS011;14537;47.788;11.858;2023-03-01T13:46:49;32.15;;;13.63;;
26989;SDS011;14537;47.788;11.858;2023-03-01T13:49:21;28.70;;;12.40;;
26989;SDS011;14537;47.788;11.858;2023-03-01T13:51:50;29.10;;;11.68;;
26989;SDS011;14537;47.788;11.858;2023-03-01T13:54:20;30.58;;;12.38;;
26989;SDS011;14537;47.788;11.858;2023-03-01T13:56:56;31.15;;;12.10;;
26989;SDS011;14537;47.788;11.858;2023-03-01T13:59:24;27.75;;;11.90;;
26989;SDS011;14537;47.788;11.858;2023-03-01T14:01:59;29.15;;;12.40;;
26989;SDS011;14537;47.788;11.858;2023-03-01T14:04:26;28.73;;;12.13;;
26989;SDS011;14537;47.788;11.858;2023-03-01T14:09:37;29.63;;;11.85;;
26989;SDS011;14537;47.788;11.858;2023-03-01T14:17:36;33.22;;;14.10;;
26989;SDS011;14537;47.788;11.858;2023-03-01T14:20:29;31.17;;;13.27;;
26989;SDS011;14537;47.788;11.858;2023-03-01T14:22:58;30.10;;;12.70;;
26989;SDS011;14537;47.788;11.858;2023-03-01T14:25:33;29.17;;;11.93;;
26989;SDS011;14537;47.788;11.858;2023-03-01T14:28:10;28.38;;;11.82;;
26989;SDS011;14537;47.788;11.858;2023-03-01T14:30:41;35.38;;;13.32;;
26989;SDS011;14537;47.788;11.858;2023-03-01T14:33:29;32.35;;;13.07;;
26989;SDS011;14537;47.788;11.858;2023-03-01T14:36:10;30.27;;;12.15;;
26989;SDS011;14537;47.788;11.858;2023-03-01T14:43:44;32.45;;;13.40;;
26989;SDS011;14537;47.788;11.858;2023-03-01T14:46:19;29.13;;;11.52;;
26989;SDS011;14537;47.788;11.858;2023-03-01T14:48:52;34.80;;;12.93;;
26989;SDS011;14537;47.788;11.858;2023-03-01T14:51:21;33.92;;;13.38;;
26989;SDS011;14537;47.788;11.858;2023-03-01T14:53:47;27.20;;;12.32;;
26989;SDS011;14537;47.788;11.858;2023-03-01T14:56:14;32.83;;;12.77;;
26989;SDS011;14537;47.788;11.858;2023-03-01T14:58:44;26.58;;;11.23;;
26989;SDS011;14537;47.788;11.858;2023-03-01T15:01:15;35.00;;;13.65;;
26989;SDS011;14537;47.788;11.858;2023-03-01T15:03:46;30.95;;;12.85;;
26989;SDS011;14537;47.788;11.858;2023-03-01T15:06:20;27.20;;;12.32;;
26989;SDS011;14537;47.788;11.858;2023-03-01T15:08:48;28.60;;;11.55;;
26989;SDS011;14537;47.788;11.858;2023-03-01T15:11:20;36.95;;;14.07;;
26989;SDS011;14537;47.788;11.858;2023-03-01T15:13:54;32.35;;;12.35;;
26989;SDS011;14537;47.788;11.858;2023-03-01T15:18:49;29.70;;;12.13;;
26989;SDS011;14537;47.788;11.858;2023-03-01T15:21:20;30.85;;;11.75;;
26989;SDS011;14537;47.788;11.858;2023-03-01T15:24:05;30.20;;;13.00;;
26989;SDS011;14537;47.788;11.858;2023-03-01T15:26:40;35.05;;;12.73;;
26989;SDS011;14537;47.788;11.858;2023-03-01T15:29:11;25.75;;;11.82;;
26989;SDS011;14537;47.788;11.858;2023-03-01T15:31:42;30.00;;;12.80;;
26989;SDS011;14537;47.788;11.858;2023-03-01T15:34:21;35.95;;;14.10;;
26989;SDS011;14537;47.788;11.858;2023-03-01T15:36:49;34.50;;;14.48;;
26989;SDS011;14537;47.788;11.858;2023-03-01T15:39:26;31.20;;;13.20;;
26989;SDS011;14537;47.788;11.858;2023-03-01T15:41:53;31.88;;;12.20;;
26989;SDS011;14537;47.788;11.858;2023-03-01T15:44:28;30.60;;;12.35;;
26989;SDS011;14537;47.788;11.858;2023-03-01T15:46:55;29.63;;;11.13;;
26989;SDS011;14537;47.788;11.858;2023-03-01T15:49:27;36.30;;;13.20;;
26989;SDS011;14537;47.788;11.858;2023-03-01T15:52:10;30.02;;;12.32;;
26989;SDS011;14537;47.788;11.858;2023-03-01T15:54:39;29.70;;;12.55;;
26989;SDS011;14537;47.788;11.858;2023-03-01T15:57:09;31.85;;;12.57;;
26989;SDS011;14537;47.788;11.858;2023-03-01T15:59:40;28.83;;;11.23;;
26989;SDS011;14537;47.788;11.858;2023-03-01T16:02:10;25.70;;;10.73;;
26989;SDS011;14537;47.788;11.858;2023-03-01T16:04:37;29.45;;;11.20;;
26989;SDS011;14537;47.788;11.858;2023-03-01T16:07:03;27.83;;;12.05;;
26989;SDS011;14537;47.788;11.858;2023-03-01T16:09:29;32.63;;;13.07;;
26989;SDS011;14537;47.788;11.858;2023-03-01T16:11:55;32.88;;;11.40;;
26989;SDS011;14537;47.788;11.858;2023-03-01T16:14:20;29.38;;;12.27;;
26989;SDS011;14537;47.788;11.858;2023-03-01T16:16:47;32.83;;;11.60;;
26989;SDS011;14537;47.788;11.858;2023-03-01T16:19:13;27.73;;;11.18;;
26989;SDS011;14537;47.788;11.858;2023-03-01T16:21:39;26.27;;;10.77;;
26989;SDS011;14537;47.788;11.858;2023-03-01T16:24:07;32.92;;;13.15;;
26989;SDS011;14537;47.788;11.858;2023-03-01T16:26:33;32.72;;;13.02;;
26989;SDS011;14537;47.788;11.858;2023-03-01T16:29:01;27.63;;;12.18;;
26989;SDS011;14537;47.788;11.858;2023-03-01T16:31:26;34.15;;;14.45;;
26989;SDS011;14537;47.788;11.858;2023-03-01T16:33:54;66.90;;;24.25;;
26989;SDS011;14537;47.788;11.858;2023-03-01T16:36:20;55.15;;;21.23;;
26989;SDS011;14537;47.788;11.858;2023-03-01T16:38:48;78.43;;;26.02;;
26989;SDS011;14537;47.788;11.858;2023-03-01T16:41:16;51.28;;;18.58;;